^^
Grace C. Lehan Memorial Weather Station Historical Data
Daily Summary for October 06, 2022 Units:  Both    English   Metric
Daily Weekly Monthly Yearly
  High: Low: Average:
Temperature: 59.8 °F /  15.4 °C 57.3 °F /  14.1 °C 59 °F /  15 °C
Dew Point: 58.7 °F /  14.8 °C 56.1 °F /  13.4 °C 57.8 °F /  14.3 °C
Humidity: 96% 95% 96%
Wind Speed: 3.9mph /  6.3km/h - 0.3mph /  0.5km/h
Wind Gust: 17mph /  27.4km/h - -
Wind- - West
Pressure: 29.87 in /  1011.4 hPa 29.86 in /  1011.1 hPa -
Precipitation: 0.00 in /  0 mm    
 
 
Tabular Data for October 06, 2022
Time Temperature Dew Point Pressure Wind Wind Speed Wind Gust Humidity Rainfall Rate (Hourly) solar
00:04 59.8 °F /  15.4 °C 58.7 °F /  14.8 °C 29.87in /  1011.4hPa NW 1.7mph /  2.7km/h 6mph /  9.7km/h 96% 0.07in /  1.78mm 0 W/m2
00:09 59.8 °F /  15.4 °C 58.6 °F /  14.8 °C 29.87in /  1011.4hPa NNW 1.5mph /  2.4km/h 9mph /  14.5km/h 96% 0.07in /  1.78mm 0 W/m2
00:14 59.7 °F /  15.4 °C 58.6 °F /  14.8 °C 29.87in /  1011.4hPa NW 3.9mph /  6.3km/h 13mph /  20.9km/h 96% 0.07in /  1.78mm 0 W/m2
00:19 59.8 °F /  15.4 °C 58.6 °F /  14.8 °C 29.87in /  1011.4hPa NNE 0.8mph /  1.3km/h 13mph /  20.9km/h 96% 0.07in /  1.78mm 0 W/m2
00:24 59.8 °F /  15.4 °C 58.7 °F /  14.8 °C 29.87in /  1011.4hPa North 1.5mph /  2.4km/h 13mph /  20.9km/h 96% 0.07in /  1.78mm 0 W/m2
00:29 59.8 °F /  15.4 °C 58.7 °F /  14.8 °C 29.87in /  1011.4hPa NW 1.9mph /  3.1km/h 17mph /  27.4km/h 96% 0.07in /  1.78mm 0 W/m2
00:34 59.8 °F /  15.4 °C 58.7 °F /  14.8 °C 29.87in /  1011.4hPa NNE 0.2mph /  0.3km/h 17mph /  27.4km/h 96% 0.07in /  1.78mm 0 W/m2
00:39 59.8 °F /  15.4 °C 58.7 °F /  14.8 °C 29.87in /  1011.4hPa NNW 0.1mph /  0.2km/h 3mph /  4.8km/h 96% 0.07in /  1.78mm 0 W/m2
00:44 59.8 °F /  15.4 °C 58.7 °F /  14.8 °C 29.87in /  1011.4hPa NNW 0.6mph /  1km/h 5mph /  8km/h 96% 0.07in /  1.78mm 0 W/m2
00:49 59.8 °F /  15.4 °C 58.7 °F /  14.8 °C 29.87in /  1011.4hPa NW 0.1mph /  0.2km/h 5mph /  8km/h 96% 0.07in /  1.78mm 0 W/m2
00:54 59.8 °F /  15.4 °C 58.7 °F /  14.8 °C 29.87in /  1011.4hPa NW 0.7mph /  1.1km/h 6mph /  9.7km/h 96% 0.07in /  1.78mm 0 W/m2
00:59 59.8 °F /  15.4 °C 58.7 °F /  14.8 °C 29.87in /  1011.4hPa Calm   6mph /  9.7km/h 96% 0.07in /  1.78mm 0 W/m2
01:04 59.8 °F /  15.4 °C 58.7 °F /  14.8 °C 29.87in /  1011.4hPa NNW 0.5mph /  0.8km/h 7mph /  11.3km/h 96% 0.07in /  1.78mm 0 W/m2
01:09 59.8 °F /  15.4 °C 58.7 °F /  14.8 °C 29.87in /  1011.4hPa NW 0.9mph /  1.4km/h 10mph /  16.1km/h 96% 0.00in /  0mm 0 W/m2
01:14 59.8 °F /  15.4 °C 58.7 °F /  14.8 °C 29.87in /  1011.4hPa WNW 0.1mph /  0.2km/h 10mph /  16.1km/h 96% 0.00in /  0mm 0 W/m2
01:19 59.8 °F /  15.4 °C 58.7 °F /  14.8 °C 29.87in /  1011.4hPa Calm   10mph /  16.1km/h 96% 0.00in /  0mm 0 W/m2
01:24 59.8 °F /  15.4 °C 58.7 °F /  14.8 °C 29.87in /  1011.4hPa Calm   10mph /  16.1km/h 96% 0.00in /  0mm 0 W/m2
01:29 59.8 °F /  15.4 °C 58.7 °F /  14.8 °C 29.87in /  1011.4hPa Calm   10mph /  16.1km/h 96% 0.00in /  0mm 0 W/m2
01:34 59.8 °F /  15.4 °C 58.7 °F /  14.8 °C 29.87in /  1011.4hPa NW 0.1mph /  0.2km/h 10mph /  16.1km/h 96% 0.00in /  0mm 0 W/m2
01:39 59.8 °F /  15.4 °C 58.7 °F /  14.8 °C 29.87in /  1011.4hPa NW 0.1mph /  0.2km/h 3mph /  4.8km/h 96% 0.00in /  0mm 0 W/m2
01:44 59.8 °F /  15.4 °C 58.7 °F /  14.8 °C 29.87in /  1011.4hPa NNW 0.2mph /  0.3km/h 3mph /  4.8km/h 96% 0.00in /  0mm 0 W/m2
01:49 59.8 °F /  15.4 °C 58.6 °F /  14.8 °C 29.87in /  1011.4hPa NNE 0.1mph /  0.2km/h 3mph /  4.8km/h 96% 0.00in /  0mm 0 W/m2
01:54 59.7 °F /  15.4 °C 58.6 °F /  14.8 °C 29.87in /  1011.4hPa Calm   3mph /  4.8km/h 96% 0.00in /  0mm 0 W/m2
01:59 59.7 °F /  15.4 °C 58.6 °F /  14.8 °C 29.87in /  1011.4hPa Calm   3mph /  4.8km/h 96% 0.00in /  0mm 0 W/m2
02:04 59.7 °F /  15.4 °C 58.5 °F /  14.7 °C 29.87in /  1011.4hPa Calm   3mph /  4.8km/h 96% 0.00in /  0mm 0 W/m2
02:09 59.6 °F /  15.3 °C 58.5 °F /  14.7 °C 29.87in /  1011.4hPa Calm     96% 0.00in /  0mm 0 W/m2
02:14 59.5 °F /  15.3 °C 58.4 °F /  14.7 °C 29.87in /  1011.4hPa Calm     96% 0.00in /  0mm 0 W/m2
02:19 59.4 °F /  15.2 °C 58.3 °F /  14.6 °C 29.87in /  1011.4hPa Calm     96% 0.00in /  0mm 0 W/m2
02:24 59.3 °F /  15.2 °C 58.2 °F /  14.6 °C 29.87in /  1011.4hPa Calm     96% 0.00in /  0mm 0 W/m2
02:29 59.2 °F /  15.1 °C 58.1 °F /  14.5 °C 29.87in /  1011.4hPa Calm     96% 0.00in /  0mm 0 W/m2
02:34 59.1 °F /  15.1 °C 57.9 °F /  14.4 °C 29.87in /  1011.4hPa Calm     96% 0.00in /  0mm 0 W/m2
02:39 58.9 °F /  14.9 °C 57.7 °F /  14.3 °C 29.87in /  1011.4hPa Calm     95.6% 0.00in /  0mm 0 W/m2
02:44 58.8 °F /  14.9 °C 57.4 °F /  14.1 °C 29.87in /  1011.4hPa Calm     95% 0.00in /  0mm 0 W/m2
02:49 58.7 °F /  14.8 °C 57.3 °F /  14.1 °C 29.87in /  1011.4hPa Calm     95.2% 0.00in /  0mm 0 W/m2
02:54 58.6 °F /  14.8 °C 57.4 °F /  14.1 °C 29.87in /  1011.4hPa Calm     96% 0.00in /  0mm 0 W/m2
02:59 58.4 °F /  14.7 °C 57.3 °F /  14.1 °C 29.87in /  1011.4hPa Calm     95.8% 0.00in /  0mm 0 W/m2
03:04 58.3 °F /  14.6 °C 56.9 °F /  13.8 °C 29.87in /  1011.4hPa Calm     95% 0.00in /  0mm 0 W/m2
03:09 58.2 °F /  14.6 °C 56.8 °F /  13.8 °C 29.87in /  1011.4hPa Calm     95% 0.00in /  0mm 0 W/m2
03:14 58.1 °F /  14.5 °C 56.8 °F /  13.8 °C 29.87in /  1011.4hPa Calm     95.7% 0.00in /  0mm 0 W/m2
03:19 58 °F /  14.4 °C 56.9 °F /  13.8 °C 29.87in /  1011.4hPa Calm     96% 0.00in /  0mm 0 W/m2
03:24 57.9 °F /  14.4 °C 56.7 °F /  13.7 °C 29.87in /  1011.4hPa Calm     96% 0.00in /  0mm 0 W/m2
03:29 57.7 °F /  14.3 °C 56.4 °F /  13.6 °C 29.86in /  1011.1hPa Calm     95.3% 0.00in /  0mm 0 W/m2
03:34 57.5 °F /  14.2 °C 56.1 °F /  13.4 °C 29.87in /  1011.4hPa Calm     95% 0.00in /  0mm 0 W/m2
03:39 57.5 °F /  14.2 °C 56.1 °F /  13.4 °C 29.87in /  1011.4hPa Calm     95.1% 0.00in /  0mm 0 W/m2
03:44 57.4 °F /  14.1 °C 56.3 °F /  13.5 °C 29.86in /  1011.1hPa Calm     96% 0.00in /  0mm 0 W/m2
03:49 57.5 °F /  14.2 °C 56.4 °F /  13.6 °C 29.86in /  1011.1hPa Calm     96% 0.00in /  0mm 0 W/m2
03:54 57.5 °F /  14.2 °C 56.4 °F /  13.6 °C 29.87in /  1011.4hPa Calm     96% 0.00in /  0mm 0 W/m2
03:59 57.5 °F /  14.2 °C 56.4 °F /  13.6 °C 29.87in /  1011.4hPa Calm     96% 0.00in /  0mm 0 W/m2
04:04 57.5 °F /  14.2 °C 56.4 °F /  13.6 °C 29.87in /  1011.4hPa Calm     96% 0.00in /  0mm 0 W/m2
04:09 57.5 °F /  14.2 °C 56.3 °F /  13.5 °C 29.87in /  1011.4hPa Calm     96% 0.00in /  0mm 0 W/m2
04:13 57.3 °F /  14.1 °C 56.2 °F /  13.4 °C 29.87in /  1011.4hPa Calm     96% 0.00in /  0mm 0 W/m2
Hartford County Weather
Compliments of Weather Underground - 4 mb